Date,TemperatureHighF,TemperatureAvgF,TemperatureLowF,DewpointHighF,DewpointAvgF,DewpointLowF,HumidityHigh,HumidityAvg,HumidityLow,PressureMaxIn,PressureMinIn,WindSpeedMaxMPH,WindSpeedAvgMPH,GustSpeedMaxMPH,PrecipitationSumIn
2013-1-1,16,12,8,7,4,2,79,68,63,30.29,30.25,12,2,13,0.00
2013-1-2,27,20,8,22,13,3,85,75,55,30.28,30.14,12,3,13,0.00
2013-1-3,26,23,14,22,18,11,88,84,79,30.30,30.13,20,5,20,0.00
2013-1-4,29,21,12,20,15,8,87,78,66,30.29,30.16,19,6,24,0.00
2013-1-5,36,28,17,33,25,15,97,88,73,30.32,29.95,14,3,18,0.08
2013-1-6,35,27,18,33,23,16,93,85,75,30.37,29.94,17,5,21,0.01
2013-1-7,38,28,16,28,22,13,92,78,59,30.36,30.12,26,5,30,0.01
2013-1-8,42,35,27,31,29,25,92,79,63,30.19,30.01,15,4,24,0.00
2013-1-9,41,36,28,32,27,22,84,71,55,30.53,29.98,26,6,28,0.00
2013-1-10,42,33,21,36,28,19,97,85,67,30.58,29.97,11,2,15,0.57
2013-1-11,51,44,37,48,43,36,99,96,87,29.97,29.67,18,3,23,0.12
2013-1-12,52,39,26,48,33,21,91,78,66,30.06,29.68,25,6,26,0.00
2013-1-13,26,19,13,23,14,6,91,80,73,30.29,29.95,19,5,22,0.00
2013-1-14,25,17,10,11,8,5,83,71,50,30.54,30.29,12,3,17,0.00
2013-1-15,31,21,12,17,14,10,91,74,50,30.52,30.18,10,2,12,0.00
2013-1-16,34,27,18,29,20,10,86,76,57,30.18,29.83,20,5,25,0.00
2013-1-17,30,21,13,21,9,2,83,61,46,30.49,30.13,15,4,19,0.00
2013-1-18,41,29,12,32,22,9,89,75,64,30.52,29.90,26,6,32,0.03
2013-1-19,44,38,18,35,29,6,81,72,32,29.95,29.70,37,7,43,0.00
2013-1-20,18,11,7,5,0,-1,70,62,50,30.37,29.95,24,6,32,0.00
2013-1-21,10,4,-3,5,-5,-11,83,66,57,30.39,30.21,22,6,26,0.00
2013-1-22,7,0,-6,-4,-8,-14,73,66,57,30.49,30.39,18,4,19,0.00
2013-1-23,17,11,3,13,4,-5,86,74,65,30.49,30.19,21,4,22,0.00
2013-1-24,19,11,1,9,2,-5,75,66,53,30.76,30.48,13,2,15,0.00
2013-1-25,24,20,16,19,13,5,88,77,55,30.48,30.03,12,4,19,0.00
2013-1-26,27,18,9,14,9,5,85,70,51,30.48,30.27,11,2,14,0.00
2013-1-27,33,28,23,32,23,13,97,83,63,30.46,29.96,16,4,20,0.00
2013-1-28,42,37,33,39,35,32,99,91,73,30.03,29.85,13,2,14,0.20
2013-1-29,59,46,36,57,45,36,100,97,91,29.89,29.50,19,3,20,1.23
2013-1-30,38,29,16,38,27,12,98,92,84,29.65,29.32,11,1,13,0.20
2013-1-31,17,11,3,13,6,-2,87,78,64,30.23,29.65,21,4,22,0.00
2013-2-1,8,3,-2,5,-3,-7,88,76,64,30.42,30.23,17,6,20,0.00
2013-2-2,13,9,4,8,4,0,90,79,65,30.27,30.13,11,2,12,0.00
2013-2-3,19,13,5,12,7,1,88,78,64,30.15,30.05,20,4,23,0.00
2013-2-4,19,14,8,14,10,4,90,83,69,30.13,30.02,8,2,10,0.00
2013-2-5,27,19,6,23,15,2,93,84,73,30.20,29.88,13,3,18,0.00
2013-2-6,34,24,8,30,18,6,94,80,66,30.33,30.17,14,2,16,0.11
2013-2-7,34,32,23,32,30,21,98,93,86,30.20,29.97,10,1,14,0.12
2013-2-8,24,20,11,21,18,9,94,91,85,30.50,30.10,0,0,0,0.00
2013-2-9,28,20,7,26,18,5,96,91,86,30.51,30.18,11,1,14,0.00
2013-2-10,44,35,27,43,34,25,99,94,83,30.19,29.49,21,4,22,1.01
2013-2-11,42,32,27,36,27,21,87,81,75,30.05,29.48,24,9,33,0.01
2013-2-12,28,24,21,21,19,17,91,81,70,30.16,29.96,14,4,18,0.00
2013-2-13,40,30,20,31,26,19,95,83,65,29.96,29.77,11,2,14,0.00
2013-2-14,36,33,28,34,29,23,94,86,77,30.04,29.64,20,4,22,0.04
2013-2-15,28,21,14,26,12,6,93,70,52,30.27,30.04,13,4,15,0.00
2013-2-16,17,12,8,6,3,0,81,67,50,30.29,30.22,14,3,20,0.00
2013-2-17,26,16,3,14,5,-2,84,62,40,30.32,30.08,13,2,17,0.00
2013-2-18,43,31,26,42,24,14,97,75,60,30.08,29.47,14,6,18,0.50
2013-2-21,26,26,26,22,22,22,87,85,84,30.24,30.18,15,6,18,0.00
2013-2-22,31,28,24,29,26,22,96,93,85,30.17,29.86,14,3,16,0.02
2013-2-23,29,25,21,25,21,17,92,83,71,30.00,29.91,14,4,17,0.01
2013-2-24,37,27,19,26,21,16,93,78,60,30.23,30.01,9,2,10,0.05
2013-2-25,41,30,17,28,23,16,96,79,54,30.26,30.13,7,1,9,0.00
2013-2-26,34,32,29,32,29,26,98,88,75,30.11,29.67,15,5,23,0.00
2013-2-27,33,31,29,32,31,28,98,97,96,29.81,29.64,13,4,16,0.09
2013-2-28,33,30,25,31,28,21,96,90,81,30.18,29.81,14,4,17,0.08
2013-3-1,25,24,22,21,20,17,88,84,79,30.31,30.17,13,5,17,0.00
2013-3-2,26,20,12,17,14,9,88,77,67,30.31,30.26,9,3,13,0.02
2013-3-3,29,18,8,14,8,0,91,68,32,30.26,30.18,10,1,11,0.01
2013-3-4,34,24,9,25,18,6,89,79,63,30.24,30.14,10,2,11,0.04
2013-3-5,32,29,26,28,26,24,96,87,75,30.14,29.96,17,4,17,0.01
2013-3-6,33,29,26,28,26,23,92,86,79,30.38,30.12,12,4,15,0.02
2013-3-7,36,29,21,26,22,17,92,76,55,30.52,30.38,8,2,9,0.14
2013-3-8,40,29,16,30,24,14,97,81,64,30.56,30.38,12,2,13,0.00
2013-3-9,39,35,30,34,30,25,91,82,75,30.38,29.89,15,4,17,0.07
2013-3-10,44,40,36,43,39,34,99,97,90,29.90,29.68,8,2,11,0.76
2013-3-11,40,35,31,40,34,28,99,97,90,29.79,29.58,15,3,16,0.04
2013-3-12,32,29,26,28,24,20,94,83,63,30.06,29.79,18,5,21,0.02
2013-3-13,31,25,20,22,13,8,88,61,40,30.38,30.05,18,6,21,0.00
2013-3-14,36,28,20,28,18,9,92,67,39,30.39,30.14,12,2,13,0.00
2013-3-15,38,32,29,33,29,26,94,90,81,30.14,29.87,13,3,13,0.04
2013-3-16,32,28,24,28,23,19,94,82,63,30.21,29.87,11,4,15,0.01
2013-3-17,31,25,19,24,17,11,81,71,59,30.33,30.11,10,3,13,0.01
2013-3-18,33,29,19,32,26,13,94,87,74,30.11,29.64,23,4,30,0.16
2013-3-19,30,20,14,14,11,8,81,67,44,30.11,29.77,25,8,29,0.00
2013-3-20,20,15,11,10,5,0,67,62,56,30.14,30.10,22,6,24,0.00
2013-3-21,28,19,10,14,9,3,75,65,53,30.14,30.10,15,4,16,0.00
2013-3-22,35,25,16,18,14,9,81,63,43,30.17,30.10,9,2,12,0.00
2013-3-23,39,29,19,25,20,16,89,72,47,30.23,30.13,8,1,9,0.00
2013-3-24,34,31,30,29,26,23,91,81,74,30.14,29.82,15,4,19,0.00
2013-3-25,34,31,28,28,25,22,90,79,67,30.16,29.84,18,5,19,0.01
2013-3-26,39,34,30,29,26,24,81,72,65,30.31,30.16,12,3,15,0.00
2013-3-27,41,36,29,26,23,18,73,60,42,30.37,30.31,15,3,16,0.00
2013-3-28,45,36,28,25,22,19,74,58,37,30.41,30.36,11,2,13,0.00
2013-3-29,48,34,25,25,22,20,86,64,34,30.39,30.31,7,1,9,0.00
2013-3-30,56,44,30,42,31,21,89,61,40,30.31,29.86,17,3,24,0.01
2013-3-31,50,41,33,42,35,20,94,79,50,29.94,29.74,20,5,27,0.01
2013-4-1,35,30,26,21,15,11,65,53,39,30.25,29.94,21,5,23,0.00
2013-4-2,38,31,24,18,14,11,70,52,33,30.39,30.25,19,4,21,0.00
2013-4-3,43,32,20,20,16,9,85,53,26,30.54,30.37,14,2,14,0.00
2013-4-4,57,43,29,35,24,12,62,48,35,30.37,30.01,20,4,20,0.00
2013-4-5,44,37,31,29,26,19,88,64,47,30.31,30.08,12,3,16,0.00
2013-4-6,63,47,35,50,35,21,89,65,46,30.24,29.59,17,5,26,0.11
2013-4-7,53,43,36,50,36,31,92,75,54,30.04,29.59,20,5,26,0.00
2013-4-8,50,42,36,46,38,31,97,89,80,30.06,29.65,14,2,15,0.70
2013-4-9,40,38,36,39,37,35,98,97,94,30.09,29.95,17,4,19,1.12
2013-4-10,38,36,33,37,35,32,98,96,94,30.22,29.92,16,5,19,1.22
2013-4-11,37,36,35,36,35,33,98,97,94,30.02,29.65,22,6,22,0.48
2013-4-12,41,37,35,38,35,30,99,93,83,29.86,29.59,19,4,19,0.08
2013-4-13,38,35,31,30,28,25,86,76,61,30.06,29.85,18,5,21,0.00
2013-4-14,53,38,29,47,34,26,95,87,78,30.09,29.70,17,4,18,0.07
2013-4-15,63,52,41,52,46,35,98,82,45,30.00,29.69,26,5,35,0.57
2013-4-16,53,43,35,39,34,32,96,74,49,30.36,30.00,16,3,16,0.00
2013-4-17,44,40,38,43,36,32,97,86,71,30.39,29.93,17,4,17,0.85
2013-4-18,52,45,40,51,44,35,99,96,81,29.94,29.42,23,3,31,1.24
2013-4-19,40,36,31,35,29,20,92,76,61,29.95,29.43,26,8,31,0.03
2013-4-20,43,34,27,22,18,14,75,55,32,30.39,29.96,16,5,20,0.00
2013-4-21,46,41,29,31,25,19,85,55,39,30.60,30.36,16,6,24,0.00
2013-4-22,66,52,41,40,34,31,69,52,31,30.36,30.11,14,4,20,0.00
2013-4-27,64,58,55,43,40,39,57,51,45,30.11,30.05,10,1,12,0.00
2013-4-28,84,58,48,55,45,40,88,63,32,30.05,29.84,7,1,9,0.23
2013-4-29,71,61,50,56,52,48,95,74,48,29.91,29.78,15,3,21,0.02
2013-4-30,86,73,62,61,56,48,85,59,28,29.92,29.75,23,7,27,0.00
2013-5-1,84,70,50,58,53,40,80,56,28,30.22,29.92,17,4,21,0.00
2013-5-2,58,46,39,47,40,35,96,79,59,30.28,30.22,13,4,17,0.96
2013-5-3,49,42,38,46,41,36,97,94,86,30.24,30.07,10,3,15,0.58
2013-5-4,69,56,45,48,45,42,94,70,43,30.11,30.05,11,2,13,0.03
2013-5-5,70,57,44,47,42,38,90,59,37,30.11,30.05,8,2,10,0.00
2013-5-6,73,60,46,44,38,28,75,47,20,30.11,30.02,8,1,11,0.00
2013-5-7,76,62,46,48,41,34,75,49,29,30.10,30.03,9,1,12,0.00
2013-5-8,80,63,45,49,43,38,91,53,26,30.08,30.00,8,1,9,0.00
2013-5-9,70,57,42,59,48,41,96,75,47,30.00,29.92,9,1,13,0.23
2013-5-10,47,43,40,44,42,39,97,93,86,30.04,29.88,16,3,17,0.78
2013-5-11,53,46,38,49,36,25,99,73,39,30.07,29.83,22,5,28,0.00
2013-5-12,53,44,36,32,27,23,75,54,33,30.17,30.07,17,5,19,0.00
2013-5-13,60,46,31,37,31,22,97,60,26,30.24,30.02,11,2,15,0.00
2013-5-14,82,66,48,58,48,32,61,51,31,30.02,29.58,21,4,40,0.03
2013-5-15,78,71,56,60,48,39,70,45,26,29.85,29.58,14,3,20,0.00
2013-5-16,79,64,54,51,42,30,71,47,32,30.03,29.85,8,2,11,0.00
2013-5-17,61,54,47,50,43,34,95,68,44,30.17,30.02,8,2,12,0.76
2013-5-18,77,63,51,60,52,44,86,69,52,30.13,29.99,14,1,14,0.00
2013-5-19,83,70,56,66,61,54,94,73,54,29.99,29.71,14,2,21,0.01
2013-5-20,85,76,68,66,61,56,89,61,38,29.77,29.68,18,3,24,0.03
2013-5-21,80,70,62,64,60,56,94,73,48,29.71,29.64,16,3,23,0.09
2013-5-22,66,60,53,64,58,52,98,92,82,29.80,29.64,6,0,7,1.17
2013-5-23,55,48,39,52,44,35,98,86,67,30.37,29.80,14,2,19,0.04
2013-5-24,60,46,35,42,35,30,94,66,41,30.51,30.37,7,1,11,0.00
2013-5-25,60,51,41,42,35,26,81,55,29,30.46,30.36,9,1,9,0.00
2013-5-26,66,52,37,44,40,34,94,64,39,30.36,30.23,13,1,14,0.00
2013-5-27,55,51,49,51,47,40,97,87,61,30.23,29.96,11,2,14,0.03
2013-5-28,67,65,50,67,64,50,99,98,98,29.88,29.77,3,0,3,1.21
2013-5-29,82,67,59,67,63,59,100,89,54,29.94,29.80,10,1,15,0.00
2013-5-30,85,76,64,69,67,62,95,74,55,29.91,29.75,18,4,31,0.51
2013-5-31,76,68,62,68,63,60,98,85,61,29.87,29.73,17,3,20,0.18
2013-6-1,76,70,63,67,64,58,95,81,61,29.72,29.63,15,3,17,0.02
2013-6-2,63,54,46,58,47,43,91,77,57,30.07,29.69,14,3,20,0.00
2013-6-3,70,57,43,50,43,37,98,65,36,30.14,30.06,10,1,11,0.00
2013-6-4,71,59,52,48,44,39,73,57,41,30.21,30.12,9,1,14,0.00
2013-6-5,63,56,51,53,48,44,93,77,52,30.19,30.02,9,1,13,0.09
2013-6-6,58,54,52,54,50,46,94,85,72,30.03,29.96,5,0,8,0.01
2013-6-7,71,60,51,52,46,38,93,61,31,30.03,29.95,11,1,12,0.01
2013-6-8,71,59,47,53,48,44,93,69,42,30.07,29.96,9,1,11,0.00
2013-6-9,78,66,54,62,56,49,86,71,52,30.07,29.86,14,1,16,0.00
2013-6-10,77,67,60,66,62,58,95,84,66,29.89,29.80,5,0,7,0.00
2013-6-11,84,72,60,68,62,58,98,75,48,29.94,29.80,13,1,13,0.01
2013-6-12,77,68,60,66,63,59,98,85,66,29.94,29.65,9,1,17,1.16
2013-6-13,75,64,55,60,55,50,97,73,52,30.11,29.72,13,2,15,0.00
2013-6-14,77,63,51,56,50,45,95,66,43,30.18,30.05,7,1,12,0.00
2013-6-15,78,66,55,69,61,48,97,84,70,30.11,29.84,12,2,16,1.72
2013-6-16,83,73,65,67,60,51,98,68,35,29.92,29.85,13,2,14,0.02
2013-6-17,85,69,58,68,57,52,92,69,36,30.00,29.86,17,2,20,0.17
2013-6-18,69,60,52,57,50,39,90,69,47,30.13,29.99,11,2,13,0.00
2013-6-19,75,62,46,51,46,41,93,58,37,30.20,30.12,9,2,12,0.00
2013-6-20,85,69,53,63,52,39,75,55,40,30.18,30.09,11,1,16,0.00
2013-6-21,75,70,66,68,64,55,97,81,61,30.15,29.88,16,2,25,1.09
2013-6-22,78,71,66,71,68,65,98,89,76,30.14,29.95,14,2,16,0.66
2013-6-23,87,76,66,74,68,64,95,77,61,30.03,29.88,14,3,19,0.00
2013-6-24,80,73,69,71,68,64,95,83,60,30.03,29.85,11,1,17,0.02
2013-6-25,82,71,66,73,68,65,99,91,72,29.96,29.82,10,1,15,1.42
2013-6-26,80,71,67,70,68,65,97,88,70,29.84,29.72,12,1,12,0.12
2013-6-27,86,74,65,73,67,62,99,83,56,29.79,29.69,12,1,17,0.00
2013-6-28,77,70,63,64,62,59,97,79,57,29.73,29.60,18,3,21,0.45
2013-6-29,74,66,62,63,60,55,98,82,54,29.84,29.63,14,2,18,0.20
2013-6-30,78,68,58,60,52,42,84,60,33,30.06,29.84,12,2,17,0.00
2013-7-1,79,68,56,54,50,46,78,56,32,30.13,30.05,11,1,13,0.00
2013-7-2,73,63,55,54,50,43,92,65,41,30.15,30.10,10,1,12,0.00
2013-7-3,67,63,60,63,59,54,94,87,77,30.11,30.05,8,0,11,0.02
2013-7-4,83,71,60,65,61,53,99,74,39,30.13,30.04,13,1,13,0.00
2013-7-5,84,74,64,66,62,57,89,67,49,30.10,30.02,11,2,15,0.00
2013-7-6,85,75,64,68,64,57,92,71,41,30.07,29.97,9,1,11,0.00
2013-7-7,88,78,69,72,69,66,94,75,55,30.01,29.93,9,1,13,0.00
2013-7-8,86,77,71,76,71,68,96,82,68,30.00,29.91,15,2,18,0.26
2013-7-9,83,74,67,75,71,67,99,90,73,30.01,29.83,12,2,15,0.38
2013-7-10,78,74,62,74,63,56,95,72,49,30.03,29.84,16,3,21,0.00
2013-7-11,80,68,55,61,55,49,98,67,41,30.14,30.03,7,1,10,0.00
2013-7-12,84,68,52,59,54,46,97,65,36,30.19,30.10,9,1,11,0.00
2013-7-13,82,72,56,63,58,53,98,66,40,30.20,30.12,10,1,13,0.00
2013-7-14,87,76,62,70,66,61,96,73,52,30.25,30.18,10,1,11,0.00
2013-7-15,89,78,67,74,71,65,97,78,58,30.28,30.23,9,1,10,0.00
2013-7-16,92,82,73,76,74,71,95,76,56,30.29,30.22,8,1,11,0.00
2013-7-17,93,84,76,76,74,72,92,73,53,30.29,30.15,12,2,16,0.00
2013-7-18,92,84,74,75,73,69,94,71,50,30.17,29.90,13,2,20,0.00
2013-7-19,90,83,77,73,71,63,82,67,53,29.91,29.72,17,4,25,0.00
2013-7-20,85,72,64,65,62,58,89,71,46,29.99,29.80,7,1,9,0.03
2013-7-21,81,68,61,67,61,55,98,80,58,30.00,29.91,14,1,14,0.56
2013-7-22,86,74,63,71,67,62,99,79,52,29.92,29.70,14,1,16,0.00
2013-7-23,74,68,58,65,58,52,94,73,49,30.02,29.71,13,2,17,0.03
2013-7-24,74,62,51,56,52,49,96,72,47,30.11,30.02,7,1,10,0.00
2013-7-25,79,67,52,62,57,51,96,72,51,30.12,29.99,11,2,12,0.00
2013-7-26,70,66,60,67,62,58,97,88,72,30.01,29.87,13,2,14,0.48
2013-7-27,60,56,53,58,50,46,95,80,63,29.95,29.89,15,3,19,0.01
2013-7-28,66,58,52,54,51,48,91,77,61,30.03,29.87,13,4,18,0.00
2013-7-29,73,63,56,59,55,52,92,76,53,30.22,30.03,8,1,10,0.00
2013-7-30,76,64,54,65,60,52,98,86,60,30.23,30.12,9,1,10,0.18
2013-7-31,76,66,60,68,64,59,99,94,72,30.12,29.96,10,0,17,0.25
2013-8-1,77,67,59,62,58,52,99,74,45,30.01,29.94,14,2,15,0.02
2013-8-2,80,70,62,67,60,55,97,74,47,29.97,29.86,13,2,15,0.16
2013-8-3,78,67,54,57,54,51,95,66,43,30.14,29.97,12,1,14,0.00
2013-8-4,74,64,55,59,56,51,97,77,49,30.25,30.14,6,1,8,0.00
2013-8-5,73,64,56,63,59,53,94,83,67,30.16,29.90,10,1,13,0.02
2013-8-6,82,73,63,70,66,62,98,82,62,29.90,29.81,10,2,12,0.00
2013-8-7,82,74,64,72,67,61,95,79,53,29.99,29.76,11,2,14,0.00
2013-8-8,77,68,60,62,54,46,98,65,36,30.08,29.98,7,1,10,0.00
2013-8-9,79,68,56,65,58,50,89,71,58,30.08,29.99,9,1,11,0.00
2013-8-10,75,65,55,61,57,51,98,76,44,30.17,30.08,9,0,10,0.00
2013-8-11,73,64,54,66,60,53,98,88,72,30.17,30.05,8,1,11,0.04
2013-8-12,81,70,63,68,64,59,99,83,48,30.07,29.90,11,1,13,0.34
2013-8-13,70,60,52,59,50,46,94,69,47,30.21,30.00,13,2,13,0.00
2013-8-14,68,55,47,51,48,45,96,81,50,30.26,30.20,7,1,8,0.00
2013-8-16,80,68,56,60,55,51,93,67,39,30.22,30.14,8,2,8,0.00
2013-8-17,81,67,52,64,56,51,99,73,45,30.28,30.20,10,3,10,0.00
2013-8-18,81,68,53,62,57,52,98,71,46,30.26,30.12,11,4,11,0.00
2013-8-19,82,71,58,64,60,55,93,71,48,30.14,30.04,14,4,14,0.00
2013-8-20,86,75,64,67,65,62,94,72,48,30.11,30.02,15,6,15,0.00
2013-8-21,89,79,69,70,67,64,86,69,51,30.06,29.91,20,9,20,0.00
2013-8-22,77,69,58,71,66,56,98,89,69,30.15,30.00,20,2,25,1.95
2013-8-23,81,67,55,64,58,53,99,75,41,30.22,30.14,8,0,9,0.00
2013-8-24,84,69,54,66,60,53,99,75,49,30.29,30.19,10,2,13,0.01
2013-8-25,89,78,67,70,65,57,84,65,42,30.23,30.10,14,3,21,0.00
2013-8-26,89,79,72,75,70,65,82,73,63,30.14,29.96,13,3,16,0.00
2013-8-27,93,84,75,75,73,70,87,71,53,29.97,29.79,16,2,23,0.00
2013-8-28,84,76,68,75,70,66,93,81,61,30.06,29.82,9,1,11,0.00
2013-8-29,88,75,64,70,67,63,99,78,54,30.10,29.99,8,1,10,0.00
2013-8-30,92,74,67,77,69,63,96,83,57,30.00,29.77,19,2,28,0.31
2013-8-31,79,69,62,68,65,61,97,85,68,29.90,29.81,6,0,7,0.00
2013-9-1,83,70,61,72,66,60,99,89,65,29.85,29.72,9,1,12,0.14
2013-9-2,71,64,57,62,58,52,98,83,61,30.03,29.83,9,1,11,0.01
2013-9-3,74,61,49,57,53,48,98,76,50,30.12,30.03,8,1,10,0.00
2013-9-4,81,66,54,65,59,53,97,79,54,30.16,30.06,9,1,14,0.00
2013-9-5,72,65,52,63,53,46,90,68,44,30.31,30.16,7,1,9,0.00
2013-9-6,84,68,48,68,59,47,98,76,53,30.27,30.01,11,1,13,0.00
2013-9-7,81,72,68,71,67,63,97,84,61,30.02,29.90,10,1,14,0.81
2013-9-8,73,68,64,66,64,62,93,88,75,30.09,29.99,10,1,13,0.00
2013-9-9,88,77,67,78,71,64,94,83,68,30.01,29.80,11,2,12,0.00
2013-9-10,94,84,77,73,66,61,76,56,37,29.94,29.82,18,3,18,0.00
2013-9-11,81,75,68,68,66,65,92,76,62,30.09,29.93,11,2,15,0.00
2013-9-12,74,66,56,65,59,46,98,79,53,30.15,29.97,12,1,13,0.01
2013-9-13,66,54,46,48,44,40,92,71,44,30.25,30.15,12,1,14,0.00
2013-9-14,70,57,42,50,46,41,98,71,44,30.23,30.05,11,1,12,0.00
2013-9-15,59,56,53,57,52,45,98,88,60,30.27,30.03,9,1,15,0.55
2013-9-16,63,52,43,50,45,40,94,78,56,30.43,30.27,12,1,13,0.00
2013-9-17,68,55,40,56,50,40,99,82,62,30.40,30.16,11,2,13,0.00
2013-9-18,77,62,58,66,57,54,96,84,67,30.16,30.00,7,1,11,0.40
2013-9-19,81,71,67,73,68,65,98,91,76,29.94,29.75,16,6,19,0.67
2013-9-20,72,66,58,67,61,54,98,86,68,29.83,29.72,16,3,18,0.01
2013-9-21,58,54,45,55,48,43,95,82,65,30.00,29.83,13,2,16,0.00
2013-9-22,63,50,40,48,43,39,97,79,48,30.13,30.00,8,1,9,0.00
2013-9-23,64,52,40,52,46,40,99,83,59,30.18,30.10,9,1,10,0.00
2013-9-24,69,57,46,57,51,45,98,82,53,30.12,30.01,8,1,10,0.01
2013-9-25,69,56,46,59,50,46,99,83,56,30.04,30.00,6,0,10,0.00
2013-9-26,74,59,46,61,51,46,99,79,38,30.14,30.03,9,1,11,0.01
2013-9-27,79,62,47,57,52,46,99,72,43,30.21,30.10,12,2,16,0.00
2013-9-28,80,68,55,66,58,53,96,75,49,30.11,29.86,16,4,18,0.20
2013-9-29,70,57,48,54,48,40,98,76,35,30.09,29.97,9,1,9,0.01
2013-9-30,72,58,43,53,48,42,98,71,43,30.05,29.88,12,2,13,0.00
2013-10-1,80,68,55,64,59,50,94,76,53,29.98,29.85,21,3,21,0.00
2013-10-2,78,62,48,59,48,35,98,67,24,30.15,29.98,7,0,8,0.00
2013-10-3,76,66,58,68,63,53,99,88,71,30.03,29.86,10,1,14,0.10
2013-10-4,66,63,60,65,62,59,99,98,96,30.05,29.90,9,0,13,0.10
2013-10-5,72,64,60,71,64,60,100,99,90,30.00,29.77,12,1,17,1.16
2013-10-6,65,53,45,64,47,42,97,81,52,29.78,29.69,17,6,17,0.16
2013-10-7,65,52,45,48,46,43,98,80,46,30.14,29.75,15,2,15,0.02
2013-10-8,76,58,40,54,47,39,99,72,36,30.22,30.13,14,2,14,0.00
2013-10-9,72,60,49,51,48,43,94,68,37,30.26,30.18,11,2,13,0.00
2013-10-10,74,57,42,57,49,41,99,78,43,30.22,30.09,8,1,11,0.00
2013-10-11,74,61,48,59,53,48,99,78,53,30.11,29.99,17,2,20,0.00
2013-10-12,67,61,52,62,53,39,95,75,55,30.18,29.96,12,3,16,0.19
2013-10-13,60,49,39,44,40,37,93,74,46,30.46,30.19,12,1,16,0.00
2013-10-14,60,48,36,48,42,35,98,82,55,30.48,30.20,9,1,13,0.00
2013-10-15,60,54,47,59,51,43,98,89,79,30.20,29.77,12,2,18,0.29
2013-10-16,53,49,46,51,47,43,97,92,87,29.97,29.82,11,2,14,0.02
2013-10-17,51,46,41,47,44,40,97,92,76,29.96,29.85,11,1,13,0.11
2013-10-18,49,44,38,44,40,37,95,86,76,29.99,29.85,13,2,17,0.01
2013-10-19,52,44,38,40,37,33,94,79,51,29.96,29.79,13,2,23,0.00
2013-10-20,51,43,32,47,39,31,98,88,56,29.92,29.77,10,1,13,0.06
2013-10-21,48,40,33,45,32,24,91,73,60,29.99,29.79,20,4,20,0.01
2013-10-22,45,36,30,32,28,24,90,73,56,30.02,29.96,16,2,16,0.00
2013-10-23,44,36,28,30,26,22,93,71,44,30.07,29.98,13,2,16,0.00
2013-10-24,43,37,33,30,28,26,81,70,56,30.34,30.06,13,3,19,0.00
2013-10-25,50,41,28,31,28,25,89,62,42,30.43,29.97,26,4,32,0.00
2013-10-26,51,46,42,37,31,26,68,55,43,30.10,29.83,22,5,28,0.00
2013-10-27,54,43,31,32,30,28,88,64,41,30.10,29.96,18,2,18,0.00
2013-10-28,44,41,35,37,33,29,84,74,62,30.48,30.09,11,2,19,0.00
2013-10-29,52,42,35,44,38,29,96,85,73,30.46,30.20,9,1,11,0.00
2013-10-30,56,50,40,55,49,39,99,95,86,30.20,29.79,13,1,18,0.00
2013-10-31,62,57,44,61,56,42,99,97,92,29.79,29.24,18,3,21,0.61
2013-11-1,46,44,42,43,41,39,96,91,87,29.77,29.33,19,4,25,0.04
2013-11-2,45,42,39,42,39,36,96,89,70,30.20,29.77,9,2,12,0.01
2013-11-3,51,42,30,41,36,29,99,81,53,30.36,30.20,13,2,16,0.00
2013-11-4,55,49,44,45,41,38,86,74,58,30.31,30.11,16,5,22,0.00
2013-11-5,55,52,49,50,48,45,95,87,78,30.30,29.93,18,3,22,0.02
2013-11-6,56,45,33,55,41,26,97,88,67,30.19,29.76,19,5,22,0.38
2013-11-7,41,35,28,33,29,25,92,80,68,30.29,30.19,14,3,17,0.00
2013-11-8,47,37,26,34,30,25,96,77,60,30.37,29.92,18,3,23,0.01
2013-11-9,52,47,41,41,36,26,79,67,54,30.09,29.81,24,7,31,0.00
2013-11-10,48,42,38,33,30,27,71,62,47,30.35,30.09,18,4,21,0.00
2013-11-11,44,34,24,35,26,15,95,75,66,30.59,30.09,14,3,16,0.10
2013-11-12,30,25,20,18,16,13,83,69,50,30.77,30.60,16,4,18,0.00
2013-11-13,41,31,19,22,17,13,82,59,33,30.64,30.14,25,6,27,0.00
2013-11-14,46,40,32,30,26,18,68,57,49,30.15,29.95,18,5,23,0.00
2013-11-15,54,44,38,36,32,28,86,63,47,29.99,29.94,12,3,13,0.00
2013-11-16,59,49,39,56,47,35,98,93,83,29.96,29.56,20,6,25,0.22
2013-11-17,64,52,40,62,50,35,99,91,78,29.67,29.07,27,7,34,1.32
2013-11-18,40,34,28,36,26,22,83,74,65,30.31,29.67,27,7,33,0.00
2013-11-19,40,31,22,32,25,19,93,81,56,30.45,30.31,8,2,12,0.00
2013-11-20,43,37,33,35,31,26,96,77,54,30.35,30.17,17,4,23,0.07
2013-11-21,45,41,36,41,39,35,97,90,83,30.28,30.17,8,1,10,0.01
2013-11-22,39,32,26,37,27,17,95,80,64,30.52,30.27,15,4,15,0.02
2013-11-23,26,19,12,18,8,4,75,63,50,30.79,30.46,20,6,22,0.00
2013-11-24,26,18,10,9,6,2,82,60,37,30.78,30.37,18,4,29,0.00
2013-11-25,30,26,21,26,20,8,94,81,53,30.37,30.10,22,5,25,0.00
2013-11-26,31,26,14,27,19,5,91,75,53,30.26,30.09,16,4,23,0.00
2013-11-27,26,18,10,17,11,5,84,72,57,30.33,30.25,14,3,16,0.00
2013-11-28,28,23,17,18,15,14,88,73,63,30.58,30.26,12,2,12,0.00
2013-11-29,26,15,11,19,12,8,92,88,71,30.72,30.59,4,0,5,0.00
2013-11-30,46,38,29,33,30,23,85,73,59,30.46,30.09,14,4,16,0.00
2013-12-1,41,34,27,31,28,25,95,82,61,30.18,30.05,7,1,9,0.00
2013-12-2,40,33,24,35,29,23,98,87,70,30.05,29.85,11,2,14,0.04
2013-12-3,40,38,34,40,38,32,99,98,96,29.85,29.75,11,2,14,0.15
2013-12-4,51,44,37,51,43,34,100,98,86,29.83,29.51,25,3,28,0.02
2013-12-5,37,25,16,35,18,10,92,75,63,30.33,29.64,21,7,29,0.00
2013-12-6,17,12,8,10,5,2,81,73,64,30.64,30.31,16,4,19,0.00
2013-12-7,15,8,2,4,1,-3,84,74,58,30.79,30.64,13,3,17,0.00
2013-12-8,26,18,6,25,14,1,96,85,65,30.72,30.02,8,1,10,0.00
2013-12-9,25,13,-2,24,8,-6,95,81,66,30.26,29.98,22,5,26,0.00
2013-12-10,19,9,-4,12,4,-8,89,77,64,30.37,30.04,21,5,23,0.00
2013-12-11,14,7,-2,11,0,-8,89,73,56,30.63,30.35,17,4,20,0.00
2013-12-12,17,9,-3,11,2,-8,79,74,65,30.61,30.29,15,4,19,0.00
2013-12-13,27,20,14,23,16,10,89,84,78,30.31,30.25,10,2,12,0.00
2013-12-14,27,24,19,25,22,17,94,92,86,30.26,30.00,10,2,13,0.00
2013-12-15,20,12,2,18,4,-6,92,73,61,30.22,29.97,16,5,19,0.00
2013-12-16,18,9,-2,12,3,-7,91,77,51,30.27,30.10,11,2,12,0.00
2013-12-17,33,24,14,26,20,12,94,83,70,30.12,29.98,15,5,19,0.03
2013-12-18,35,25,12,27,16,8,83,70,42,30.19,29.84,17,4,23,0.01
2013-12-19,34,30,26,31,28,24,96,89,78,30.05,29.85,11,2,13,0.00
2013-12-20,32,28,26,30,27,25,96,96,94,29.94,29.84,11,2,13,0.00
2013-12-21,32,28,25,32,28,24,98,97,92,29.95,29.74,9,2,15,0.00
2013-12-22,31,25,20,29,24,18,98,95,92,30.17,29.73,9,3,15,0.02
2013-12-23,21,12,1,19,10,-2,95,90,86,30.49,30.18,12,3,18,0.00
2013-12-24,17,6,-4,12,3,-6,90,86,78,30.64,30.44,9,2,13,0.02
2013-12-25,23,20,12,21,18,10,93,91,88,30.44,30.15,15,4,17,0.00
2013-12-26,26,21,12,24,18,10,93,88,79,30.33,30.15,21,2,21,0.00
2013-12-27,38,29,16,32,25,14,96,87,76,30.35,30.07,15,3,19,0.04
2013-12-28,43,37,29,34,31,27,90,79,69,30.11,29.81,16,4,21,0.26
2013-12-29,41,22,1,31,16,-4,93,78,68,30.28,29.78,17,4,20,0.00
2013-12-30,4,-1,-8,-2,-8,-13,85,73,55,30.44,30.28,9,2,10,0.00
2013-12-31,8,5,1,4,0,-3,87,81,73,30.48,30.30,10,3,12,0.00
2014-1-1,14,9,2,12,5,-6,89,84,67,30.47,30.37,9,3,12,0.00
2014-1-2,15,8,-2,9,4,-6,90,81,69,30.52,30.33,11,3,13,0.00